Time;durP1;ratioP1;P1;durP2;ratioP2;P2;SDS_P1;SDS_P2;PMS_P1;PMS_P2;Temp;Humidity;BMP_temperature;BMP_pressure;BME280_temperature;BME280_humidity;BME280_pressure;Samples;Min_cycle;Max_cycle;Signal;HPM_P1;HPM_P2
2023/09/30 00:00:11;;;;;;;37.70;36.33;;;18.40;99.90;;;;;;5078437;28;20202;-66
2023/09/30 00:02:38;;;;;;;34.28;33.03;;;18.40;99.90;;;;;;5076978;28;20288;-67
2023/09/30 00:05:05;;;;;;;27.52;26.52;;;18.40;99.90;;;;;;5077432;28;20218;-68
2023/09/30 00:07:32;;;;;;;28.65;27.60;;;18.30;99.90;;;;;;5074624;28;20290;-68
2023/09/30 00:09:59;;;;;;;23.38;22.58;;;18.20;99.90;;;;;;5070539;28;20207;-68
2023/09/30 00:12:27;;;;;;;26.37;25.40;;;18.20;99.90;;;;;;5068285;28;20293;-66
2023/09/30 00:14:54;;;;;;;26.13;25.20;;;18.10;99.90;;;;;;5069128;28;20294;-67
2023/09/30 00:17:21;;;;;;;23.08;22.27;;;18.10;99.90;;;;;;5069472;28;20211;-66
2023/09/30 00:19:48;;;;;;;23.00;22.20;;;18.00;99.90;;;;;;5067245;28;20324;-67
2023/09/30 00:22:14;;;;;;;23.17;22.33;;;18.00;99.90;;;;;;5069261;28;20223;-66
2023/09/30 00:24:41;;;;;;;23.15;22.33;;;18.00;99.90;;;;;;5064911;28;20206;-67
2023/09/30 00:27:08;;;;;;;20.75;20.05;;;17.90;99.90;;;;;;5063679;28;20221;-68
2023/09/30 00:29:36;;;;;;;21.92;21.13;;;17.90;99.90;;;;;;5067262;28;20203;-67
2023/09/30 00:32:04;;;;;;;22.45;21.65;;;17.80;99.90;;;;;;5065964;28;20236;-67
2023/09/30 00:34:33;;;;;;;21.00;20.27;;;17.80;99.90;;;;;;5069004;28;20298;-67
2023/09/30 00:37:00;;;;;;;22.95;22.15;;;17.80;99.90;;;;;;5069212;28;20577;-69
2023/09/30 00:39:29;;;;;;;27.92;26.90;;;17.90;99.90;;;;;;5067331;28;20295;-66
2023/09/30 00:41:58;;;;;;;26.95;25.95;;;17.90;99.90;;;;;;5071521;28;20227;-69
2023/09/30 00:44:25;;;;;;;20.25;19.55;;;17.80;99.90;;;;;;5072815;28;20770;-68
2023/09/30 00:46:54;;;;;;;25.80;24.90;;;17.80;99.90;;;;;;5068463;28;20211;-65
2023/09/30 00:49:22;;;;;;;23.60;22.75;;;17.80;99.90;;;;;;5067711;28;20191;-66
2023/09/30 00:51:50;;;;;;;24.58;23.73;;;17.90;99.90;;;;;;5072420;28;20235;-67
2023/09/30 00:54:18;;;;;;;25.35;24.45;;;17.90;99.90;;;;;;5072648;28;20207;-68
2023/09/30 00:56:46;;;;;;;28.42;27.42;;;17.90;99.90;;;;;;5072455;28;20670;-67
2023/09/30 00:59:14;;;;;;;24.27;23.40;;;17.90;99.90;;;;;;5070715;28;20578;-67
2023/09/30 01:01:41;;;;;;;23.45;22.63;;;17.80;99.90;;;;;;5073202;28;20227;-67
2023/09/30 01:04:09;;;;;;;25.23;24.33;;;17.80;99.90;;;;;;5073418;28;20222;-68
2023/09/30 01:06:36;;;;;;;29.98;28.88;;;17.80;99.90;;;;;;5072435;28;20222;-67
2023/09/30 01:09:03;;;;;;;27.10;26.15;;;17.80;99.90;;;;;;5069370;28;20658;-67
2023/09/30 01:11:31;;;;;;;21.33;20.55;;;17.80;99.90;;;;;;5071322;28;20654;-67
2023/09/30 01:13:57;;;;;;;23.75;22.88;;;17.80;99.90;;;;;;5069464;28;20234;-66
2023/09/30 01:16:24;;;;;;;28.60;27.63;;;17.80;99.90;;;;;;5072346;28;20208;-68
2023/09/30 01:18:51;;;;;;;26.17;25.25;;;17.70;99.90;;;;;;5071447;28;20234;-67
2023/09/30 01:21:20;;;;;;;24.65;23.80;;;17.60;99.90;;;;;;5072237;28;20245;-68
2023/09/30 01:23:49;;;;;;;27.52;26.58;;;17.60;99.90;;;;;;5072241;28;20233;-66
2023/09/30 01:26:15;;;;;;;23.55;22.73;;;17.50;99.90;;;;;;5072230;28;20211;-68
2023/09/30 01:28:42;;;;;;;24.95;24.08;;;17.50;99.90;;;;;;5072592;28;20211;-67
2023/09/30 01:31:09;;;;;;;23.52;22.65;;;17.40;99.90;;;;;;5067492;28;20227;-68
2023/09/30 01:33:36;;;;;;;21.67;20.92;;;17.40;99.90;;;;;;5079275;28;20213;-67
2023/09/30 01:36:03;;;;;;;23.45;22.65;;;17.30;99.90;;;;;;5076436;28;20207;-66
2023/09/30 01:38:29;;;;;;;23.45;22.63;;;17.20;99.90;;;;;;5085066;28;20225;-66
2023/09/30 01:40:57;;;;;;;28.88;27.83;;;17.20;99.90;;;;;;5081137;28;20298;-66
2023/09/30 01:43:24;;;;;;;39.15;37.70;;;17.20;99.90;;;;;;5074017;28;20236;-70
2023/09/30 01:45:51;;;;;;;28.63;27.58;;;17.20;99.90;;;;;;5074308;28;20215;-68
2023/09/30 01:48:18;;;;;;;28.27;27.27;;;17.10;99.90;;;;;;5073413;28;20298;-66
2023/09/30 01:50:45;;;;;;;18.85;18.15;;;17.00;99.90;;;;;;5071598;28;20239;-66
2023/09/30 01:53:12;;;;;;;21.63;20.83;;;17.10;99.90;;;;;;5071100;28;20207;-66
2023/09/30 01:55:38;;;;;;;26.25;25.30;;;17.20;99.90;;;;;;5071462;28;20684;-67
2023/09/30 01:58:07;;;;;;;24.45;23.65;;;17.20;99.90;;;;;;5071626;28;20215;-67
2023/09/30 02:00:35;;;;;;;24.45;23.55;;;17.30;99.90;;;;;;5070708;28;20295;-68
2023/09/30 02:03:01;;;;;;;24.83;23.92;;;17.30;99.90;;;;;;5071551;28;20223;-67
2023/09/30 02:05:28;;;;;;;21.98;21.23;;;17.30;99.90;;;;;;5071402;28;20207;-65
2023/09/30 02:07:55;;;;;;;27.75;26.80;;;17.30;99.90;;;;;;5071422;28;20306;-66
2023/09/30 02:10:22;;;;;;;18.98;18.33;;;17.30;99.90;;;;;;5071301;28;20207;-67
2023/09/30 02:12:49;;;;;;;17.10;16.50;;;17.30;99.90;;;;;;5071683;28;20687;-66
2023/09/30 02:15:17;;;;;;;18.13;17.52;;;17.20;99.90;;;;;;5071602;28;20221;-68
2023/09/30 02:17:45;;;;;;;17.77;17.15;;;17.30;99.90;;;;;;5071035;28;20203;-68
2023/09/30 02:20:15;;;;;;;18.15;17.50;;;17.40;99.90;;;;;;5073193;28;20207;-67
2023/09/30 02:22:43;;;;;;;19.27;18.58;;;17.50;99.90;;;;;;5071321;28;20705;-68
2023/09/30 02:25:12;;;;;;;23.07;22.27;;;17.40;99.90;;;;;;5071720;28;20238;-66
2023/09/30 02:27:39;;;;;;;20.05;19.30;;;17.40;99.90;;;;;;5070980;28;20207;-66
2023/09/30 02:30:08;;;;;;;20.52;19.83;;;17.30;99.90;;;;;;5071003;28;20199;-67
2023/09/30 02:32:36;;;;;;;20.52;19.80;;;17.20;99.90;;;;;;5070944;28;20227;-66
2023/09/30 02:35:04;;;;;;;21.80;21.05;;;17.20;99.90;;;;;;5071249;28;20221;-68
2023/09/30 02:37:35;;;;;;;29.30;28.25;;;17.20;99.90;;;;;;5070908;28;20301;-67
2023/09/30 02:40:03;;;;;;;21.50;20.73;;;17.10;99.90;;;;;;5070173;28;20235;-66
2023/09/30 02:42:30;;;;;;;22.25;21.48;;;17.20;99.90;;;;;;5070765;28;20235;-66
2023/09/30 02:44:57;;;;;;;18.30;17.70;;;17.20;99.90;;;;;;5070579;28;20231;-67
2023/09/30 02:47:24;;;;;;;23.05;22.20;;;17.20;99.90;;;;;;5070704;28;20294;-68
2023/09/30 02:49:52;;;;;;;21.92;21.15;;;17.20;99.90;;;;;;5070471;28;20251;-68
2023/09/30 02:52:19;;;;;;;18.88;18.17;;;17.20;99.90;;;;;;5071346;28;20618;-68
2023/09/30 02:54:45;;;;;;;18.10;17.42;;;17.20;99.90;;;;;;5071294;28;20209;-67
2023/09/30 02:57:12;;;;;;;19.05;18.35;;;17.20;99.90;;;;;;5070955;28;20207;-66
2023/09/30 02:59:39;;;;;;;20.27;19.58;;;17.20;99.90;;;;;;5070061;28;20680;-68
2023/09/30 03:02:06;;;;;;;17.67;17.08;;;17.20;99.90;;;;;;5070967;28;20276;-67
2023/09/30 03:04:33;;;;;;;20.58;19.88;;;17.20;99.90;;;;;;5071271;28;20223;-69
2023/09/30 03:07:02;;;;;;;22.23;21.42;;;17.20;99.90;;;;;;5070943;28;20221;-67
2023/09/30 03:09:28;;;;;;;19.23;18.52;;;17.30;99.90;;;;;;5070739;28;20654;-67
2023/09/30 03:11:55;;;;;;;22.55;21.75;;;17.20;99.90;;;;;;5070694;28;20722;-67
2023/09/30 03:14:22;;;;;;;21.40;20.67;;;17.20;99.90;;;;;;5071413;28;20204;-66
2023/09/30 03:16:49;;;;;;;27.13;26.17;;;17.10;99.90;;;;;;5071008;28;20659;-67
2023/09/30 03:19:17;;;;;;;25.40;24.50;;;17.10;99.90;;;;;;5071423;28;20203;-68
2023/09/30 03:21:44;;;;;;;24.13;23.25;;;17.10;99.90;;;;;;5070968;28;20921;-66
2023/09/30 03:24:12;;;;;;;22.48;21.67;;;17.10;99.90;;;;;;5070587;28;20227;-69
2023/09/30 03:26:41;;;;;;;22.15;21.35;;;17.10;99.90;;;;;;5070687;28;20238;-68
2023/09/30 03:29:08;;;;;;;21.92;21.13;;;17.20;99.90;;;;;;5070701;28;20200;-68
2023/09/30 03:31:35;;;;;;;22.13;21.33;;;17.20;99.90;;;;;;5070630;28;20239;-66
2023/09/30 03:34:03;;;;;;;27.83;26.83;;;17.20;99.90;;;;;;5070541;28;20207;-66
2023/09/30 03:36:31;;;;;;;25.00;24.10;;;17.10;99.90;;;;;;5070219;28;20214;-66
2023/09/30 03:38:59;;;;;;;32.80;31.65;;;17.10;99.90;;;;;;5069835;28;20217;-68
2023/09/30 03:41:28;;;;;;;28.00;27.00;;;17.20;99.90;;;;;;5069894;28;20833;-69
2023/09/30 03:43:55;;;;;;;27.93;26.93;;;17.20;99.90;;;;;;5070118;28;20689;-67
2023/09/30 03:46:22;;;;;;;25.10;24.20;;;17.30;99.90;;;;;;5070285;28;20681;-67
2023/09/30 03:48:48;;;;;;;26.10;25.20;;;17.40;99.90;;;;;;5069218;28;20580;-66
2023/09/30 03:51:16;;;;;;;22.45;21.63;;;17.30;99.90;;;;;;5067215;28;20232;-66
2023/09/30 03:53:43;;;;;;;29.05;28.05;;;17.40;99.90;;;;;;5069352;28;20211;-67
2023/09/30 03:56:11;;;;;;;25.90;24.95;;;17.40;99.90;;;;;;5070242;28;20203;-67
2023/09/30 03:58:40;;;;;;;28.95;27.95;;;17.40;99.90;;;;;;5068768;28;20264;-70
2023/09/30 04:01:07;;;;;;;23.90;23.05;;;17.40;99.90;;;;;;5069983;28;20231;-68
2023/09/30 04:03:34;;;;;;;25.52;24.60;;;17.50;99.90;;;;;;5069834;28;20284;-67
2023/09/30 04:06:03;;;;;;;22.93;22.13;;;17.50;99.90;;;;;;5065691;28;20263;-67
2023/09/30 04:08:33;;;;;;;20.77;20.03;;;17.50;99.90;;;;;;5069179;28;20218;-68
2023/09/30 04:11:00;;;;;;;19.42;18.73;;;17.50;99.90;;;;;;5069602;28;20608;-67
2023/09/30 04:13:27;;;;;;;18.35;17.65;;;17.50;99.90;;;;;;5069895;28;20689;-68
2023/09/30 04:15:56;;;;;;;18.98;18.27;;;17.60;99.90;;;;;;5069496;28;20217;-69
2023/09/30 04:18:23;;;;;;;20.45;19.70;;;17.60;99.90;;;;;;5069573;28;20211;-67
2023/09/30 04:20:50;;;;;;;22.30;21.50;;;17.60;99.90;;;;;;5069422;28;20296;-67
2023/09/30 04:23:19;;;;;;;19.65;18.95;;;17.60;99.90;;;;;;5071917;28;20250;-68
2023/09/30 04:25:46;;;;;;;21.48;20.67;;;17.60;99.90;;;;;;5071273;28;20689;-64
2023/09/30 04:28:13;;;;;;;19.33;18.63;;;17.50;99.90;;;;;;5072077;28;20215;-66
2023/09/30 04:30:40;;;;;;;20.63;19.88;;;17.50;99.90;;;;;;5070305;28;20207;-65
2023/09/30 04:33:11;;;;;;;22.00;21.20;;;17.50;99.90;;;;;;5071404;28;20699;-67
2023/09/30 04:35:38;;;;;;;19.57;18.87;;;17.50;99.90;;;;;;5075725;28;20276;-66
2023/09/30 04:38:05;;;;;;;18.20;17.60;;;17.50;99.90;;;;;;5078011;28;20203;-66
2023/09/30 04:40:33;;;;;;;18.55;17.92;;;17.50;99.90;;;;;;5074012;28;20298;-66
2023/09/30 04:43:00;;;;;;;18.93;18.33;;;17.60;99.90;;;;;;5072795;28;20507;-66
2023/09/30 04:45:27;;;;;;;18.92;18.30;;;17.50;99.90;;;;;;5073847;28;20237;-66
2023/09/30 04:47:56;;;;;;;19.45;18.75;;;17.50;99.90;;;;;;5072168;28;20203;-66
2023/09/30 04:50:24;;;;;;;20.40;19.70;;;17.50;99.90;;;;;;5072063;28;20215;-65
2023/09/30 04:52:51;;;;;;;19.45;18.75;;;17.50;99.90;;;;;;5072536;28;20893;-67
2023/09/30 04:55:18;;;;;;;25.63;24.73;;;17.50;99.90;;;;;;5073547;28;20749;-67
2023/09/30 04:57:47;;;;;;;21.25;20.55;;;17.50;99.90;;;;;;5073373;28;20254;-67
2023/09/30 05:00:16;;;;;;;27.85;26.85;;;17.50;99.90;;;;;;5073146;28;20215;-66
2023/09/30 05:02:44;;;;;;;22.98;22.17;;;17.40;99.90;;;;;;5072860;28;20255;-67
2023/09/30 05:05:11;;;;;;;25.77;24.88;;;17.40;99.90;;;;;;5073361;28;20227;-67
2023/09/30 05:07:39;;;;;;;25.30;24.40;;;17.50;99.90;;;;;;5073068;28;20207;-65
2023/09/30 05:10:10;;;;;;;31.98;30.83;;;17.50;99.90;;;;;;5071951;28;20204;-66
2023/09/30 05:12:37;;;;;;;33.45;32.25;;;17.40;99.90;;;;;;5072331;28;20223;-66
2023/09/30 05:15:05;;;;;;;21.73;20.97;;;17.40;99.90;;;;;;5071289;28;20211;-66
2023/09/30 05:17:33;;;;;;;23.52;22.63;;;17.30;99.90;;;;;;5067174;28;20211;-67
2023/09/30 05:20:00;;;;;;;25.00;24.10;;;17.20;99.90;;;;;;5065607;28;20211;-67
2023/09/30 05:22:27;;;;;;;26.02;25.13;;;17.20;99.90;;;;;;5071270;28;20237;-67
2023/09/30 05:24:56;;;;;;;23.63;22.73;;;17.30;99.90;;;;;;5073486;28;20616;-67
2023/09/30 05:27:23;;;;;;;24.63;23.70;;;17.30;99.90;;;;;;5071962;28;20272;-66
2023/09/30 05:29:49;;;;;;;32.55;31.40;;;17.30;99.90;;;;;;5071260;28;20214;-66
2023/09/30 05:32:18;;;;;;;24.83;23.95;;;17.20;99.90;;;;;;5075067;28;20242;-65
2023/09/30 05:34:45;;;;;;;28.83;27.83;;;17.20;99.90;;;;;;5073470;28;20211;-67
2023/09/30 05:37:12;;;;;;;36.83;35.53;;;17.20;99.90;;;;;;5067701;28;20218;-66
2023/09/30 05:39:39;;;;;;;29.33;28.33;;;17.20;99.90;;;;;;5070803;28;20199;-65
2023/09/30 05:42:07;;;;;;;40.03;38.60;;;17.30;99.90;;;;;;5072215;28;20230;-67
2023/09/30 05:44:34;;;;;;;41.47;40.00;;;17.30;99.90;;;;;;5071887;28;20223;-67
2023/09/30 05:47:01;;;;;;;44.50;42.95;;;17.40;99.90;;;;;;5072775;28;20211;-66
2023/09/30 05:49:27;;;;;;;23.13;22.33;;;17.40;99.90;;;;;;5071416;28;20234;-65
2023/09/30 05:51:55;;;;;;;29.80;28.70;;;17.40;99.90;;;;;;5072612;28;20229;-67
2023/09/30 05:54:22;;;;;;;26.48;25.55;;;17.40;99.90;;;;;;5072822;28;20207;-65
2023/09/30 05:56:49;;;;;;;24.45;23.60;;;17.40;99.90;;;;;;5072233;28;20211;-64
2023/09/30 05:59:17;;;;;;;27.25;26.25;;;17.40;99.90;;;;;;5068856;28;20217;-65
2023/09/30 06:01:46;;;;;;;33.30;32.10;;;17.40;99.90;;;;;;5072476;28;20233;-65
2023/09/30 06:04:13;;;;;;;27.80;26.85;;;17.40;99.90;;;;;;5072034;28;20234;-66
2023/09/30 06:06:40;;;;;;;32.75;31.55;;;17.40;99.90;;;;;;5071530;28;20211;-65
2023/09/30 06:09:08;;;;;;;26.58;25.63;;;17.50;99.90;;;;;;5065502;28;20557;-64
2023/09/30 06:11:35;;;;;;;27.83;26.83;;;17.50;99.90;;;;;;5072785;28;20254;-64
2023/09/30 06:14:06;;;;;;;25.77;24.88;;;17.50;99.90;;;;;;5072632;28;20773;-66
2023/09/30 06:16:34;;;;;;;21.30;20.60;;;17.50;99.90;;;;;;5074486;28;20418;-66
2023/09/30 06:19:01;;;;;;;23.45;22.60;;;17.50;99.90;;;;;;5077997;28;20306;-65
2023/09/30 06:21:29;;;;;;;20.20;19.50;;;17.60;99.90;;;;;;5072900;28;20235;-67
2023/09/30 06:23:56;;;;;;;24.85;23.92;;;17.60;99.90;;;;;;5062467;28;20223;-66
2023/09/30 06:26:24;;;;;;;25.10;24.10;;;17.60;99.90;;;;;;5073360;28;20221;-65
2023/09/30 06:28:54;;;;;;;22.00;21.20;;;17.60;99.90;;;;;;5071387;28;20222;-65
2023/09/30 06:31:20;;;;;;;21.50;20.75;;;17.60;99.90;;;;;;5067858;28;20273;-64
2023/09/30 06:33:49;;;;;;;23.20;22.40;;;17.70;99.90;;;;;;5072072;28;20215;-65
2023/09/30 06:36:16;;;;;;;23.55;22.73;;;17.70;99.90;;;;;;5069202;28;20666;-65
2023/09/30 06:38:44;;;;;;;22.25;21.45;;;17.80;99.90;;;;;;5068015;28;20844;-66
2023/09/30 06:41:16;;;;;;;18.13;17.52;;;17.70;99.90;;;;;;5058371;28;20238;-65
2023/09/30 06:43:43;;;;;;;19.15;18.40;;;17.80;99.90;;;;;;5070666;28;20207;-65
2023/09/30 06:46:11;;;;;;;19.83;19.13;;;17.90;99.90;;;;;;5063287;28;20227;-65
2023/09/30 06:48:40;;;;;;;20.17;19.48;;;18.10;99.90;;;;;;5068470;28;20294;-65
2023/09/30 06:51:09;;;;;;;18.27;17.63;;;18.20;99.90;;;;;;5068120;28;20725;-66
2023/09/30 06:53:36;;;;;;;19.77;19.08;;;18.30;99.90;;;;;;5069444;28;20207;-66
2023/09/30 06:56:06;;;;;;;22.05;21.25;;;18.40;99.90;;;;;;5070465;28;20588;-66
2023/09/30 06:58:33;;;;;;;24.30;23.45;;;18.40;99.90;;;;;;5070977;28;20312;-66
2023/09/30 07:00:59;;;;;;;22.25;21.45;;;18.40;99.90;;;;;;5071230;28;20219;-67
2023/09/30 07:03:26;;;;;;;23.45;22.60;;;18.40;99.90;;;;;;5064582;28;20606;-67
2023/09/30 07:05:56;;;;;;;22.02;21.27;;;18.40;99.90;;;;;;5070921;28;20263;-67
2023/09/30 07:08:24;;;;;;;18.75;18.10;;;18.40;99.90;;;;;;5069331;28;20312;-65
2023/09/30 07:10:52;;;;;;;18.77;18.15;;;18.40;99.90;;;;;;5066775;28;20219;-65
2023/09/30 07:13:19;;;;;;;18.75;18.15;;;18.40;99.90;;;;;;5063905;28;20640;-65
2023/09/30 07:15:46;;;;;;;19.10;18.40;;;18.40;99.90;;;;;;5062066;28;20215;-67
2023/09/30 07:18:13;;;;;;;22.75;21.95;;;18.50;99.90;;;;;;5070454;28;20208;-65
2023/09/30 07:20:40;;;;;;;18.92;18.23;;;18.50;99.90;;;;;;5069941;28;20743;-65
2023/09/30 07:23:09;;;;;;;23.48;22.67;;;18.40;99.90;;;;;;5067965;28;20206;-68
2023/09/30 07:25:37;;;;;;;25.30;24.40;;;18.30;99.90;;;;;;5068790;28;20226;-64
2023/09/30 07:28:04;;;;;;;22.95;22.13;;;18.50;99.90;;;;;;5067614;28;20211;-65
2023/09/30 07:30:31;;;;;;;21.27;20.52;;;18.50;99.90;;;;;;5067411;28;20207;-65
2023/09/30 07:32:58;;;;;;;20.10;19.30;;;18.60;99.90;;;;;;5068807;28;20229;-66
2023/09/30 07:35:24;;;;;;;21.98;21.17;;;18.70;99.90;;;;;;5072369;28;20207;-66
2023/09/30 07:37:53;;;;;;;21.15;20.35;;;18.80;99.90;;;;;;5069929;28;20560;-66
2023/09/30 07:40:21;;;;;;;20.67;19.98;;;18.80;99.90;;;;;;5064637;28;20212;-64
2023/09/30 07:42:49;;;;;;;21.75;20.95;;;18.90;99.90;;;;;;5071584;28;20223;-65
2023/09/30 07:45:17;;;;;;;21.48;20.67;;;19.10;99.90;;;;;;5061954;28;20589;-65
2023/09/30 07:47:46;;;;;;;21.70;20.90;;;19.00;99.90;;;;;;5070982;28;20203;-65
2023/09/30 07:50:13;;;;;;;19.98;19.27;;;19.00;99.90;;;;;;5065005;28;20254;-67
2023/09/30 07:52:41;;;;;;;21.40;20.60;;;18.90;99.90;;;;;;5069431;28;20664;-66
2023/09/30 07:55:09;;;;;;;21.20;20.42;;;19.00;99.90;;;;;;5070019;28;20203;-66
2023/09/30 07:57:36;;;;;;;22.08;21.27;;;18.80;99.90;;;;;;5069893;28;20211;-66
2023/09/30 08:00:08;;;;;;;20.70;20.00;;;18.80;99.90;;;;;;5070989;28;20196;-64
2023/09/30 08:02:36;;;;;;;22.63;21.83;;;18.90;99.90;;;;;;5070988;28;20285;-65
2023/09/30 08:05:03;;;;;;;20.05;19.33;;;18.90;99.90;;;;;;5069590;28;20242;-66
2023/09/30 08:07:30;;;;;;;21.42;20.63;;;19.00;99.90;;;;;;5070251;28;20199;-65
2023/09/30 08:09:57;;;;;;;22.27;21.48;;;19.10;99.90;;;;;;5069453;28;20290;-67
2023/09/30 08:12:23;;;;;;;20.20;19.48;;;19.20;99.90;;;;;;5070017;28;20223;-66
2023/09/30 08:14:51;;;;;;;20.48;19.73;;;19.20;99.90;;;;;;5068932;28;20213;-67
2023/09/30 08:17:19;;;;;;;18.75;18.08;;;19.30;99.90;;;;;;5065723;28;20202;-67
2023/09/30 08:19:47;;;;;;;22.55;21.75;;;19.30;99.90;;;;;;5060692;28;20210;-67
2023/09/30 08:22:14;;;;;;;21.23;20.47;;;19.30;99.90;;;;;;5060956;28;21001;-66
2023/09/30 08:24:41;;;;;;;21.15;20.33;;;19.40;99.90;;;;;;5070789;28;20218;-65
2023/09/30 08:27:08;;;;;;;21.15;20.42;;;19.50;99.90;;;;;;5074040;28;20302;-67
2023/09/30 08:29:37;;;;;;;20.23;19.52;;;19.60;99.90;;;;;;5067914;28;20209;-63
2023/09/30 08:32:04;;;;;;;19.58;18.88;;;19.60;99.90;;;;;;5069929;28;20223;-66
2023/09/30 08:34:33;;;;;;;21.55;20.75;;;19.70;99.90;;;;;;5070408;28;20206;-65
2023/09/30 08:37:00;;;;;;;20.83;20.05;;;19.80;99.90;;;;;;5069296;28;20658;-64
2023/09/30 08:39:28;;;;;;;18.83;18.13;;;19.90;99.90;;;;;;5065072;28;20212;-65
2023/09/30 08:41:56;;;;;;;21.98;21.13;;;20.00;99.90;;;;;;5049795;28;20237;-64
2023/09/30 08:44:23;;;;;;;20.70;19.92;;;20.00;99.90;;;;;;5062934;28;20279;-65
2023/09/30 08:46:51;;;;;;;18.48;17.77;;;20.00;99.90;;;;;;5071305;28;20227;-64
2023/09/30 08:49:21;;;;;;;17.75;17.13;;;19.90;99.90;;;;;;5067902;28;20211;-66
2023/09/30 08:51:50;;;;;;;19.63;18.92;;;19.90;99.90;;;;;;5065878;28;20235;-66
2023/09/30 08:54:17;;;;;;;18.30;17.70;;;20.10;99.90;;;;;;5066362;28;20264;-66
2023/09/30 08:56:49;;;;;;;20.27;19.55;;;20.20;99.90;;;;;;5067695;28;20203;-67
2023/09/30 08:59:16;;;;;;;18.75;18.08;;;20.20;99.90;;;;;;5066099;28;20218;-66
2023/09/30 09:01:44;;;;;;;18.23;17.52;;;20.30;99.90;;;;;;5068256;28;20223;-67
2023/09/30 09:04:11;;;;;;;19.17;18.48;;;20.40;99.90;;;;;;5069616;28;20195;-65
2023/09/30 09:06:38;;;;;;;19.05;18.35;;;20.50;99.90;;;;;;5071045;28;20259;-64
2023/09/30 09:09:16;;;;;;;20.95;20.15;;;20.70;99.90;;;;;;5068515;28;20214;-65
2023/09/30 09:11:43;;;;;;;19.60;18.90;;;20.70;99.90;;;;;;5072120;28;20237;-65
2023/09/30 09:14:10;;;;;;;20.20;19.50;;;20.60;99.90;;;;;;5069477;28;20670;-66
2023/09/30 09:16:36;;;;;;;20.83;20.05;;;20.80;99.90;;;;;;5069381;28;20205;-66
2023/09/30 09:19:15;;;;;;;21.27;20.48;;;20.90;99.90;;;;;;5069338;28;20199;-66
2023/09/30 09:21:55;;;;;;;19.50;18.80;;;21.20;99.90;;;;;;5073791;28;20262;-67
2023/09/30 09:24:30;;;;;;;20.42;19.73;;;21.10;99.90;;;;;;5069681;28;20234;-66
2023/09/30 09:27:04;;;;;;;21.88;21.10;;;21.00;99.90;;;;;;5071606;28;20463;-68
2023/09/30 09:29:31;;;;;;;21.85;21.05;;;21.20;99.90;;;;;;5072291;28;20626;-67
2023/09/30 09:32:08;;;;;;;20.27;19.58;;;21.30;99.90;;;;;;5073572;28;20265;-67
2023/09/30 09:34:34;;;;;;;21.80;21.05;;;21.40;99.90;;;;;;5074001;28;20561;-66
2023/09/30 09:37:14;;;;;;;19.13;18.42;;;21.70;99.90;;;;;;5068641;28;20278;-66
2023/09/30 09:39:51;;;;;;;20.60;19.90;;;21.70;99.90;;;;;;5070905;28;20725;-65
2023/09/30 09:42:26;;;;;;;23.60;22.77;;;21.80;99.90;;;;;;5064054;28;20235;-66
2023/09/30 09:44:57;;;;;;;24.05;23.20;;;21.80;99.90;;;;;;5072249;28;20207;-66
2023/09/30 09:47:25;;;;;;;19.83;19.15;;;21.80;99.90;;;;;;5069773;28;20222;-67
2023/09/30 09:49:52;;;;;;;19.17;18.48;;;21.70;99.90;;;;;;5069335;28;20239;-67
2023/09/30 09:52:20;;;;;;;20.73;19.92;;;21.70;99.90;;;;;;5065417;28;20288;-65
2023/09/30 09:54:50;;;;;;;23.23;22.33;;;21.80;99.90;;;;;;5070683;28;20692;-67
2023/09/30 09:57:18;;;;;;;20.92;20.13;;;22.00;99.90;;;;;;5067391;28;20207;-66
2023/09/30 09:59:47;;;;;;;21.33;20.60;;;22.00;99.90;;;;;;5071772;28;20237;-67
2023/09/30 10:02:15;;;;;;;22.75;21.95;;;21.90;99.90;;;;;;5071498;28;20778;-66
2023/09/30 10:04:43;;;;;;;19.95;19.25;;;22.10;99.90;;;;;;5073686;28;20199;-66
2023/09/30 10:07:15;;;;;;;19.98;19.27;;;22.10;99.90;;;;;;5075124;28;20223;-66
2023/09/30 10:09:47;;;;;;;19.33;18.63;;;22.10;99.90;;;;;;5076275;28;20210;-66
2023/09/30 10:12:16;;;;;;;18.55;17.85;;;22.00;99.90;;;;;;5075267;28;20227;-66
2023/09/30 10:14:43;;;;;;;18.58;17.90;;;22.10;99.90;;;;;;5075964;28;20302;-66
2023/09/30 10:17:11;;;;;;;16.42;15.82;;;22.40;99.90;;;;;;5076207;28;20200;-66
2023/09/30 10:20:04;;;;;;;18.83;18.17;;;22.50;99.90;;;;;;5076981;28;20206;-66
2023/09/30 10:22:31;;;;;;;17.08;16.48;;;22.60;99.90;;;;;;5068382;28;20227;-67
2023/09/30 10:24:59;;;;;;;17.27;16.67;;;22.80;99.90;;;;;;5069411;28;20290;-66
2023/09/30 10:27:38;;;;;;;17.75;17.10;;;22.80;99.90;;;;;;5067616;28;20263;-66
2023/09/30 10:30:13;;;;;;;16.00;15.40;;;22.90;99.90;;;;;;5064569;28;20568;-67
2023/09/30 10:33:14;;;;;;;16.00;15.40;;;23.00;99.90;;;;;;5072313;28;20774;-66
2023/09/30 10:35:48;;;;;;;17.27;16.67;;;23.20;99.90;;;;;;5062847;28;20211;-67
2023/09/30 10:38:38;;;;;;;16.90;16.30;;;23.30;99.90;;;;;;5067941;28;20239;-66
2023/09/30 10:41:05;;;;;;;17.50;16.90;;;23.30;99.90;;;;;;5073986;28;20219;-66
2023/09/30 10:43:35;;;;;;;18.50;17.90;;;23.30;99.90;;;;;;5071891;28;20675;-68
2023/09/30 10:46:05;;;;;;;19.48;18.77;;;23.40;99.90;;;;;;5070051;28;20215;-67
2023/09/30 10:48:40;;;;;;;19.50;18.80;;;23.50;99.90;;;;;;5070762;28;20199;-66
2023/09/30 10:51:20;;;;;;;17.02;16.42;;;23.20;99.90;;;;;;5071372;28;20229;-67
2023/09/30 10:53:51;;;;;;;20.45;19.73;;;23.20;99.90;;;;;;5070117;28;20700;-67
2023/09/30 10:56:19;;;;;;;20.67;19.98;;;23.30;99.90;;;;;;5071961;28;20203;-68
2023/09/30 10:58:48;;;;;;;18.42;17.73;;;23.50;99.90;;;;;;5069817;28;20223;-68
2023/09/30 11:01:16;;;;;;;17.95;17.35;;;23.70;99.90;;;;;;5070548;28;20231;-67
2023/09/30 11:03:44;;;;;;;18.77;18.08;;;23.80;99.90;;;;;;5070535;28;20589;-67
2023/09/30 11:06:17;;;;;;;17.60;16.92;;;23.80;99.90;;;;;;5062415;28;20220;-66
2023/09/30 11:08:47;;;;;;;19.13;18.42;;;23.90;99.90;;;;;;5068918;28;20251;-67
2023/09/30 11:11:15;;;;;;;19.33;18.63;;;24.00;99.90;;;;;;5067927;28;20239;-67
2023/09/30 11:13:42;;;;;;;16.33;15.73;;;24.20;99.90;;;;;;5069697;28;20211;-67
2023/09/30 11:16:10;;;;;;;16.55;15.95;;;24.40;99.90;;;;;;5067442;28;20289;-67
2023/09/30 11:18:38;;;;;;;16.83;16.23;;;24.20;99.90;;;;;;5070941;28;20670;-67
2023/09/30 11:21:07;;;;;;;16.17;15.57;;;24.10;99.90;;;;;;5070045;28;20219;-66
2023/09/30 11:23:35;;;;;;;16.27;15.68;;;24.10;99.90;;;;;;5071444;28;20213;-66
2023/09/30 11:26:02;;;;;;;16.75;16.15;;;24.10;99.90;;;;;;5069068;28;20266;-66
2023/09/30 11:28:37;;;;;;;16.20;15.60;;;24.20;99.90;;;;;;5068174;28;20213;-65
2023/09/30 11:31:06;;;;;;;17.30;16.70;;;24.40;99.90;;;;;;5065262;28;20220;-66
2023/09/30 11:33:48;;;;;;;21.60;20.80;;;24.40;99.90;;;;;;5071569;28;20250;-67
2023/09/30 11:36:15;;;;;;;18.00;17.30;;;24.20;99.90;;;;;;5065643;28;20294;-67
2023/09/30 11:38:47;;;;;;;16.38;15.77;;;23.90;99.90;;;;;;5067286;28;20213;-65
2023/09/30 11:41:14;;;;;;;15.95;15.25;;;23.60;99.90;;;;;;5065977;28;20238;-65
2023/09/30 11:43:59;;;;;;;15.75;15.15;;;23.50;99.90;;;;;;5069672;28;20396;-66
2023/09/30 11:46:26;;;;;;;16.23;15.63;;;23.60;99.90;;;;;;5065418;28;20227;-66
2023/09/30 11:49:00;;;;;;;19.80;19.02;;;23.80;99.90;;;;;;5065258;28;20221;-66
2023/09/30 11:51:27;;;;;;;16.02;15.43;;;23.60;99.90;;;;;;5065173;28;20231;-65
2023/09/30 11:53:54;;;;;;;16.50;15.90;;;23.60;99.90;;;;;;5069934;28;20258;-66
2023/09/30 11:56:22;;;;;;;16.52;15.93;;;23.50;99.90;;;;;;5064228;28;20582;-66
2023/09/30 11:58:50;;;;;;;15.52;14.93;;;23.60;99.90;;;;;;5066002;28;20354;-67
2023/09/30 12:01:17;;;;;;;14.95;14.45;;;23.50;99.90;;;;;;5068799;28;20250;-65
2023/09/30 12:03:44;;;;;;;14.48;13.98;;;23.60;99.90;;;;;;5071038;28;20577;-66
2023/09/30 12:06:13;;;;;;;14.40;13.90;;;23.90;99.90;;;;;;5069342;28;20234;-65
2023/09/30 12:08:40;;;;;;;16.02;15.43;;;24.10;99.90;;;;;;5067638;28;20729;-65
2023/09/30 12:11:07;;;;;;;17.48;16.88;;;24.30;99.90;;;;;;5068361;28;20223;-66
2023/09/30 12:13:34;;;;;;;16.80;16.20;;;24.20;99.90;;;;;;5071206;28;20218;-66
2023/09/30 12:16:01;;;;;;;16.02;15.43;;;24.10;99.90;;;;;;5067161;28;20298;-65
2023/09/30 12:18:28;;;;;;;15.98;15.43;;;24.20;99.90;;;;;;5068323;28;20225;-65
2023/09/30 12:20:54;;;;;;;16.02;15.43;;;24.20;99.90;;;;;;5064779;28;20292;-64
2023/09/30 12:23:23;;;;;;;15.88;15.27;;;24.00;99.90;;;;;;5070777;28;20708;-66
2023/09/30 12:25:50;;;;;;;16.88;16.27;;;23.70;99.90;;;;;;5070870;28;20203;-66
2023/09/30 12:28:17;;;;;;;16.00;15.40;;;23.70;99.90;;;;;;5071344;28;20616;-67
2023/09/30 12:30:44;;;;;;;15.48;14.88;;;23.70;99.90;;;;;;5069941;28;20227;-65
2023/09/30 12:33:11;;;;;;;14.68;14.18;;;23.60;99.90;;;;;;5074008;28;20211;-66